Terminal Aerodrome Forecast
Issued by NWS

Home | Current Version | Previous Version | Text Only | Print | Product List | Glossary On
Versions: 1 2 3 4 5 6 7 8 9 10 11 12 13 14 15 16 17 18 19
000
FTUS46 KMTR 261700
TAFSNS
TAF
KSNS 261721Z 2618/2718 24008KT P6SM SKC
     FM261930 26015KT P6SM SKC
     FM270200 26010G15KT P6SM SCT012
     FM270900 24005KT P6SM BKN015
     FM271600 28006KT P6SM FEW015=

USA.gov is the U.S. government's official web portal to all federal, state and local government web resources and services.